Time;durP1;ratioP1;P1;durP2;ratioP2;P2;SDS_P1;SDS_P2;PMS_P1;PMS_P2;Temp;Humidity;BMP_temperature;BMP_pressure;BME280_temperature;BME280_humidity;BME280_pressure;Samples;Min_cycle;Max_cycle;Signal;HPM_P1;HPM_P2
2021/12/15 00:02:19;;;;;;;40.97;20.77;;;;;;;;;;4994463;28;20232;-76
2021/12/15 00:04:50;;;;;;;37.83;20.20;;;;;;;;;;4994442;28;20223;-76
2021/12/15 00:07:18;;;;;;;45.67;20.63;;;;;;;;;;4998497;28;20212;-77
2021/12/15 00:09:46;;;;;;;38.47;20.37;;;;;;;;;;5003221;28;20213;-76
2021/12/15 00:12:17;;;;;;;42.57;20.53;;;;;;;;;;4979799;28;20217;-76
2021/12/15 00:14:42;;;;;;;38.87;20.67;;;;;;;;;;5001255;28;20224;-76
2021/12/15 00:17:11;;;;;;;42.37;21.77;;;;;;;;;;4992715;28;20235;-76
2021/12/15 00:19:41;;;;;;;40.07;20.73;;;;;;;;;;5005013;28;20269;-76
2021/12/15 00:22:07;;;;;;;41.33;20.80;;;;;;;;;;4978352;28;20648;-76
2021/12/15 00:24:33;;;;;;;43.13;22.13;;;;;;;;;;4995147;28;20244;-76
2021/12/15 00:27:01;;;;;;;42.47;22.27;;;;;;;;;;4995163;28;20244;-77
2021/12/15 00:29:30;;;;;;;45.80;22.27;;;;;;;;;;4995367;28;20221;-75
2021/12/15 00:31:58;;;;;;;47.30;23.00;;;;;;;;;;5011057;28;20431;-75
2021/12/15 00:34:25;;;;;;;41.43;22.57;;;;;;;;;;4998376;28;20235;-75
2021/12/15 00:36:56;;;;;;;45.27;21.83;;;;;;;;;;4998721;28;20224;-75
2021/12/15 00:39:23;;;;;;;41.87;21.97;;;;;;;;;;4994837;28;20224;-75
2021/12/15 00:41:49;;;;;;;41.80;21.37;;;;;;;;;;4993487;28;20209;-75
2021/12/15 00:44:22;;;;;;;39.30;21.27;;;;;;;;;;4982200;28;20217;-75
2021/12/15 00:46:50;;;;;;;40.90;20.77;;;;;;;;;;4990018;28;1175175;-75
2021/12/15 00:49:19;;;;;;;41.40;20.77;;;;;;;;;;5013109;28;20221;-75
2021/12/15 00:51:46;;;;;;;37.87;20.73;;;;;;;;;;4995546;28;20274;-75
2021/12/15 00:54:12;;;;;;;38.30;20.00;;;;;;;;;;5013152;28;20228;-75
2021/12/15 00:56:43;;;;;;;35.13;20.60;;;;;;;;;;5015489;28;20224;-75
2021/12/15 00:59:11;;;;;;;42.43;21.00;;;;;;;;;;5014596;28;20238;-75
2021/12/15 01:01:41;;;;;;;38.23;20.57;;;;;;;;;;4979677;28;20224;-74
2021/12/15 01:04:08;;;;;;;36.43;20.37;;;;;;;;;;5011281;28;20287;-75
2021/12/15 01:06:38;;;;;;;42.53;22.43;;;;;;;;;;5015122;28;20216;-75
2021/12/15 01:09:08;;;;;;;43.50;21.83;;;;;;;;;;5031092;28;20224;-75
2021/12/15 01:12:11;;;;;;;44.50;22.93;;;;;;;;;;5013807;28;20225;-76
2021/12/15 01:20:30;;;;;;;40.60;20.60;;;;;;;;;;5009083;28;20332;-75
2021/12/15 01:22:59;;;;;;;39.47;20.93;;;;;;;;;;5010953;28;20229;-75
2021/12/15 01:25:37;;;;;;;44.50;23.70;;;;;;;;;;5001850;28;20211;-74
2021/12/15 01:28:03;;;;;;;43.40;21.87;;;;;;;;;;5014417;28;20404;-76
2021/12/15 01:30:39;;;;;;;43.93;22.87;;;;;;;;;;4998832;28;20631;-75
2021/12/15 01:33:09;;;;;;;43.83;21.63;;;;;;;;;;5013956;28;20239;-76
2021/12/15 01:35:39;;;;;;;44.93;23.03;;;;;;;;;;5024713;28;20228;-75
2021/12/15 01:38:12;;;;;;;45.03;22.37;;;;;;;;;;4995627;28;20228;-74
2021/12/15 01:40:44;;;;;;;44.43;23.37;;;;;;;;;;5002268;28;20216;-77
2021/12/15 01:46:52;;;;;;;45.07;24.00;;;;;;;;;;5030061;28;20610;-76
2021/12/15 01:46:56;;;;;;;47.83;23.60;;;;;;;;;;5014617;28;20600;-76
2021/12/15 01:49:25;;;;;;;48.53;24.27;;;;;;;;;;5011967;28;20228;-76
2021/12/15 01:51:50;;;;;;;53.23;26.13;;;;;;;;;;5006479;28;20286;-76
2021/12/15 01:54:21;;;;;;;49.73;25.37;;;;;;;;;;4993483;28;20233;-76
2021/12/15 01:56:49;;;;;;;53.67;25.83;;;;;;;;;;5036109;28;20278;-77
2021/12/15 01:59:16;;;;;;;53.30;25.83;;;;;;;;;;4998310;28;20613;-76
2021/12/15 02:01:47;;;;;;;54.30;26.23;;;;;;;;;;4994498;28;20221;-77
2021/12/15 02:04:15;;;;;;;56.17;26.67;;;;;;;;;;5010426;28;20283;-76
2021/12/15 02:06:45;;;;;;;56.20;27.73;;;;;;;;;;5016306;28;20216;-76
2021/12/15 02:09:16;;;;;;;56.70;25.53;;;;;;;;;;5029604;28;20235;-76
2021/12/15 02:11:44;;;;;;;58.20;26.47;;;;;;;;;;5002373;28;20244;-77
2021/12/15 02:14:12;;;;;;;57.17;26.93;;;;;;;;;;4978243;28;20231;-77
2021/12/15 02:16:40;;;;;;;63.53;27.30;;;;;;;;;;4988317;28;20220;-76
2021/12/15 02:19:10;;;;;;;58.37;26.53;;;;;;;;;;4997056;28;20224;-76
2021/12/15 02:21:36;;;;;;;61.83;27.03;;;;;;;;;;5010240;28;20217;-77
2021/12/15 02:24:05;;;;;;;66.73;29.27;;;;;;;;;;4993944;28;20224;-76
2021/12/15 02:26:36;;;;;;;73.50;29.93;;;;;;;;;;5013888;28;20224;-76
2021/12/15 02:29:06;;;;;;;70.30;29.77;;;;;;;;;;4981586;28;20518;-77
2021/12/15 02:31:57;;;;;;;68.83;28.40;;;;;;;;;;4983764;28;20596;-76
2021/12/15 02:39:39;;;;;;;66.07;30.30;;;;;;;;;;4995807;28;20593;-76
2021/12/15 02:42:08;;;;;;;69.73;29.17;;;;;;;;;;4977757;28;20229;-77
2021/12/15 02:44:41;;;;;;;73.17;29.10;;;;;;;;;;5009851;28;20229;-77
2021/12/15 02:47:10;;;;;;;73.10;29.20;;;;;;;;;;5029188;28;20216;-76
2021/12/15 02:49:36;;;;;;;73.73;31.00;;;;;;;;;;4997207;28;20216;-77
2021/12/15 02:52:01;;;;;;;71.80;29.17;;;;;;;;;;4988030;28;20613;-76
2021/12/15 02:54:29;;;;;;;83.47;30.87;;;;;;;;;;4977525;28;20224;-77
2021/12/15 02:57:10;;;;;;;88.17;34.10;;;;;;;;;;5017566;28;20240;-76
2021/12/15 02:59:56;;;;;;;73.90;28.33;;;;;;;;;;5014971;28;20227;-76
2021/12/15 03:02:58;;;;;;;81.87;31.47;;;;;;;;;;4987918;28;20295;-77
2021/12/15 03:05:23;;;;;;;74.17;28.87;;;;;;;;;;5014357;28;20220;-77
2021/12/15 03:08:16;;;;;;;69.80;29.00;;;;;;;;;;4985992;28;20235;-75
2021/12/15 03:16:22;;;;;;;91.57;30.87;;;;;;;;;;5015361;28;20362;-76
2021/12/15 03:18:50;;;;;;;88.50;33.37;;;;;;;;;;4994153;28;20243;-77
2021/12/15 03:21:22;;;;;;;83.63;32.10;;;;;;;;;;5009415;28;20223;-76
2021/12/15 03:24:06;;;;;;;95.70;32.30;;;;;;;;;;4993905;28;20279;-76
2021/12/15 03:26:40;;;;;;;86.30;30.50;;;;;;;;;;4978869;28;20216;-76
2021/12/15 03:35:47;;;;;;;93.83;32.20;;;;;;;;;;5029298;28;20234;-77
2021/12/15 03:37:36;;;;;;;107.20;34.03;;;;;;;;;;5014769;28;20263;-78
2021/12/15 03:40:09;;;;;;;99.13;33.67;;;;;;;;;;4977193;28;20229;-77
2021/12/15 03:43:01;;;;;;;96.97;33.17;;;;;;;;;;5015536;28;20228;-76
2021/12/15 03:45:36;;;;;;;106.30;34.53;;;;;;;;;;5015057;28;20654;-76
2021/12/15 03:48:06;;;;;;;102.07;36.13;;;;;;;;;;5024859;28;20283;-76
2021/12/15 03:50:32;;;;;;;103.67;37.27;;;;;;;;;;5020987;28;20693;-76
2021/12/15 03:53:02;;;;;;;104.33;36.87;;;;;;;;;;5009795;28;20313;-76
2021/12/15 03:55:34;;;;;;;107.97;37.53;;;;;;;;;;5012508;28;20265;-76
2021/12/15 03:58:08;;;;;;;106.10;37.27;;;;;;;;;;4997505;28;20235;-76
2021/12/15 04:00:35;;;;;;;105.17;34.47;;;;;;;;;;4988549;28;20224;-77
2021/12/15 04:03:05;;;;;;;112.53;36.13;;;;;;;;;;5006843;28;20224;-77
2021/12/15 04:05:34;;;;;;;109.00;36.47;;;;;;;;;;5042280;28;20354;-76
2021/12/15 04:08:04;;;;;;;115.90;34.60;;;;;;;;;;5003147;28;20304;-76
2021/12/15 04:10:32;;;;;;;133.20;43.50;;;;;;;;;;5009397;28;20599;-76
2021/12/15 04:13:00;;;;;;;102.53;36.73;;;;;;;;;;4998694;28;20216;-76
2021/12/15 04:18:05;;;;;;;113.53;37.20;;;;;;;;;;5027722;28;20224;-76
2021/12/15 04:20:34;;;;;;;106.17;35.97;;;;;;;;;;5012274;28;20712;-76
2021/12/15 04:23:00;;;;;;;113.43;36.97;;;;;;;;;;5000745;28;20598;-76
2021/12/15 04:25:28;;;;;;;104.57;35.90;;;;;;;;;;5032145;28;20216;-76
2021/12/15 04:28:16;;;;;;;108.43;36.17;;;;;;;;;;4997711;28;20225;-77
2021/12/15 04:30:50;;;;;;;105.40;35.60;;;;;;;;;;5028376;28;20258;-77
2021/12/15 04:33:44;;;;;;;112.33;36.03;;;;;;;;;;5017608;28;20231;-75
2021/12/15 04:36:12;;;;;;;105.97;35.97;;;;;;;;;;5002992;28;20319;-77
2021/12/15 04:38:41;;;;;;;123.20;37.60;;;;;;;;;;5007287;28;20227;-77
2021/12/15 04:41:16;;;;;;;116.60;39.50;;;;;;;;;;5013847;28;20228;-77
2021/12/15 04:43:48;;;;;;;125.07;38.10;;;;;;;;;;4996714;28;20271;-77
2021/12/15 04:46:14;;;;;;;122.20;39.80;;;;;;;;;;5001812;28;20224;-76
2021/12/15 04:48:43;;;;;;;123.13;38.97;;;;;;;;;;5007156;28;20213;-76
2021/12/15 04:51:13;;;;;;;136.07;41.20;;;;;;;;;;5011364;28;20256;-76
2021/12/15 04:53:42;;;;;;;125.03;39.93;;;;;;;;;;4985165;28;20255;-76
2021/12/15 04:56:07;;;;;;;138.27;43.87;;;;;;;;;;5015018;28;20292;-76
2021/12/15 04:58:38;;;;;;;129.73;41.30;;;;;;;;;;4994585;28;20237;-75
2021/12/15 05:01:06;;;;;;;145.87;42.87;;;;;;;;;;4979460;28;20220;-76
2021/12/15 05:03:31;;;;;;;129.63;40.97;;;;;;;;;;4982473;28;20588;-77
2021/12/15 05:05:57;;;;;;;144.80;45.87;;;;;;;;;;4998898;28;20307;-75
2021/12/15 05:08:28;;;;;;;159.87;46.43;;;;;;;;;;5012644;28;20246;-75
2021/12/15 05:10:55;;;;;;;120.90;41.57;;;;;;;;;;4995236;28;20315;-76
2021/12/15 05:13:24;;;;;;;117.03;39.93;;;;;;;;;;4989673;28;20224;-74
2021/12/15 05:15:49;;;;;;;131.73;41.20;;;;;;;;;;5015348;28;20230;-76
2021/12/15 05:18:19;;;;;;;128.03;39.93;;;;;;;;;;5028623;28;20229;-76
2021/12/15 05:20:52;;;;;;;128.37;39.33;;;;;;;;;;5031620;28;20699;-75
2021/12/15 05:23:21;;;;;;;116.30;40.00;;;;;;;;;;5036042;28;20247;-77
2021/12/15 05:25:51;;;;;;;115.60;37.80;;;;;;;;;;5000786;28;20224;-76
2021/12/15 05:28:19;;;;;;;124.80;40.90;;;;;;;;;;5000230;28;20248;-76
2021/12/15 05:30:47;;;;;;;126.90;41.17;;;;;;;;;;5031758;28;20700;-76
2021/12/15 05:33:16;;;;;;;125.73;40.33;;;;;;;;;;5032406;28;20354;-76
2021/12/15 05:35:44;;;;;;;114.13;40.80;;;;;;;;;;5014525;28;20236;-76
2021/12/15 05:38:12;;;;;;;115.60;40.50;;;;;;;;;;4995199;28;20697;-77
2021/12/15 05:40:41;;;;;;;114.23;39.87;;;;;;;;;;4987994;28;20216;-77
2021/12/15 05:43:06;;;;;;;101.90;38.20;;;;;;;;;;5030462;28;20220;-77
2021/12/15 05:45:36;;;;;;;109.93;39.27;;;;;;;;;;5000206;28;20638;-76
2021/12/15 05:48:02;;;;;;;117.23;40.17;;;;;;;;;;4978760;28;20712;-77
2021/12/15 05:50:28;;;;;;;108.17;39.13;;;;;;;;;;5023608;28;20604;-76
2021/12/15 05:52:54;;;;;;;112.20;43.37;;;;;;;;;;5014335;28;20220;-76
2021/12/15 05:55:22;;;;;;;114.60;40.33;;;;;;;;;;4986140;28;20610;-76
2021/12/15 05:57:51;;;;;;;101.93;38.47;;;;;;;;;;4994950;28;20231;-76
2021/12/15 06:00:20;;;;;;;93.97;35.77;;;;;;;;;;5005280;28;20604;-76
2021/12/15 06:02:51;;;;;;;93.40;36.47;;;;;;;;;;4998054;28;20231;-76
2021/12/15 06:05:21;;;;;;;97.27;39.90;;;;;;;;;;5003187;28;20690;-76
2021/12/15 06:07:47;;;;;;;88.97;36.63;;;;;;;;;;4978472;28;20224;-77
2021/12/15 06:10:19;;;;;;;103.63;41.93;;;;;;;;;;4986162;28;20228;-77
2021/12/15 06:12:47;;;;;;;93.83;36.23;;;;;;;;;;5013840;28;20227;-76
2021/12/15 06:15:23;;;;;;;97.47;37.00;;;;;;;;;;5021739;28;20708;-75
2021/12/15 06:17:57;;;;;;;91.30;35.47;;;;;;;;;;4995508;28;20231;-77
2021/12/15 06:20:24;;;;;;;81.67;34.47;;;;;;;;;;5003173;28;20220;-77
2021/12/15 06:22:55;;;;;;;86.97;36.00;;;;;;;;;;5029970;28;20905;-75
2021/12/15 06:25:23;;;;;;;82.47;33.50;;;;;;;;;;5006447;28;20271;-77
2021/12/15 06:27:48;;;;;;;81.93;35.77;;;;;;;;;;4994614;28;20224;-77
2021/12/15 06:30:14;;;;;;;69.97;31.50;;;;;;;;;;4983190;28;20224;-77
2021/12/15 06:32:42;;;;;;;76.57;31.50;;;;;;;;;;5013518;28;20228;-77
2021/12/15 06:35:12;;;;;;;73.40;31.23;;;;;;;;;;4993481;28;20220;-76
2021/12/15 06:37:40;;;;;;;86.90;37.30;;;;;;;;;;4994021;28;20241;-77
2021/12/15 06:40:11;;;;;;;79.67;34.60;;;;;;;;;;4981487;28;20346;-76
2021/12/15 06:42:39;;;;;;;70.50;30.67;;;;;;;;;;5029432;28;20228;-76
2021/12/15 06:45:08;;;;;;;77.93;31.97;;;;;;;;;;5010599;28;20283;-76
2021/12/15 06:57:27;;;;;;;67.50;30.70;;;;;;;;;;4993979;28;20229;-77
2021/12/15 06:58:39;;;;;;;63.60;29.27;;;;;;;;;;5009745;28;20285;-76
2021/12/15 07:01:07;;;;;;;65.73;31.67;;;;;;;;;;5000705;28;20811;-77
2021/12/15 07:03:33;;;;;;;64.67;33.57;;;;;;;;;;5018812;28;20233;-76
2021/12/15 07:06:03;;;;;;;55.93;26.90;;;;;;;;;;4989218;28;20300;-77
2021/12/15 07:08:29;;;;;;;50.63;27.10;;;;;;;;;;4993898;28;20728;-76
2021/12/15 07:10:58;;;;;;;56.80;27.83;;;;;;;;;;4987736;28;20244;-77
2021/12/15 07:13:30;;;;;;;56.57;28.47;;;;;;;;;;5009373;28;20223;-76
2021/12/15 07:16:06;;;;;;;52.73;28.53;;;;;;;;;;4993948;28;20239;-76
2021/12/15 07:18:40;;;;;;;54.97;27.40;;;;;;;;;;4994380;28;20623;-77
2021/12/15 07:21:11;;;;;;;50.67;27.23;;;;;;;;;;4986697;28;20228;-76
2021/12/15 07:23:39;;;;;;;52.17;28.73;;;;;;;;;;5029108;28;20600;-76
2021/12/15 07:26:07;;;;;;;46.77;25.30;;;;;;;;;;5007720;28;20266;-76
2021/12/15 07:28:40;;;;;;;43.50;24.63;;;;;;;;;;4994232;28;20220;-76
2021/12/15 07:31:07;;;;;;;51.83;28.20;;;;;;;;;;4981811;28;20216;-77
2021/12/15 07:33:32;;;;;;;49.50;26.77;;;;;;;;;;5012797;28;20238;-76
2021/12/15 07:36:16;;;;;;;50.73;31.10;;;;;;;;;;5010982;28;20220;-76
2021/12/15 07:38:43;;;;;;;45.67;24.97;;;;;;;;;;4980742;28;20225;-75
2021/12/15 07:44:23;;;;;;;46.13;25.77;;;;;;;;;;4956992;28;20241;-76
2021/12/15 07:47:13;;;;;;;46.57;27.10;;;;;;;;;;5013633;28;20693;-78
2021/12/15 07:49:38;;;;;;;46.63;26.27;;;;;;;;;;5039845;28;20219;-77
2021/12/15 07:52:44;;;;;;;45.57;25.97;;;;;;;;;;4998424;28;20227;-77
2021/12/15 07:55:20;;;;;;;44.53;25.87;;;;;;;;;;5013609;28;20216;-77
2021/12/15 07:57:46;;;;;;;44.20;27.23;;;;;;;;;;5033551;28;20219;-78
2021/12/15 08:00:15;;;;;;;42.63;25.63;;;;;;;;;;5038429;28;20224;-78
2021/12/15 08:02:45;;;;;;;44.00;25.77;;;;;;;;;;5032696;28;20219;-78
2021/12/15 08:05:11;;;;;;;43.90;26.83;;;;;;;;;;5053305;28;20306;-77
2021/12/15 08:07:48;;;;;;;47.73;26.20;;;;;;;;;;5002740;28;20229;-77
2021/12/15 08:10:14;;;;;;;43.83;25.13;;;;;;;;;;4959960;28;20688;-78
2021/12/15 08:12:56;;;;;;;41.50;26.43;;;;;;;;;;5012126;28;20226;-78
2021/12/15 08:15:32;;;;;;;43.07;25.67;;;;;;;;;;4945131;28;20279;-77
2021/12/15 08:18:08;;;;;;;41.83;26.07;;;;;;;;;;5032661;28;20239;-77
2021/12/15 08:20:39;;;;;;;44.07;26.27;;;;;;;;;;5032490;28;20254;-77
2021/12/15 08:23:08;;;;;;;44.53;26.77;;;;;;;;;;5013707;28;20240;-78
2021/12/15 08:25:53;;;;;;;41.77;25.27;;;;;;;;;;5045303;28;20239;-78
2021/12/15 08:28:19;;;;;;;45.87;27.50;;;;;;;;;;5030930;28;20231;-78
2021/12/15 08:30:46;;;;;;;44.53;26.00;;;;;;;;;;5018681;28;20728;-77
2021/12/15 08:33:17;;;;;;;40.60;26.77;;;;;;;;;;5020410;28;20239;-77
2021/12/15 08:35:56;;;;;;;45.80;27.57;;;;;;;;;;4982588;28;20227;-78
2021/12/15 08:38:26;;;;;;;44.60;26.97;;;;;;;;;;4993430;28;20262;-75
2021/12/15 08:40:54;;;;;;;46.77;26.27;;;;;;;;;;5015283;28;20238;-75
2021/12/15 08:43:25;;;;;;;44.40;27.67;;;;;;;;;;5016759;28;20299;-74
2021/12/15 08:46:28;;;;;;;43.57;25.97;;;;;;;;;;4979587;28;20224;-74
2021/12/15 08:48:54;;;;;;;47.77;27.37;;;;;;;;;;4974226;28;20224;-75
2021/12/15 08:51:25;;;;;;;42.37;27.10;;;;;;;;;;5032843;28;20224;-75
2021/12/15 08:53:55;;;;;;;46.00;27.83;;;;;;;;;;5015928;28;20233;-75
2021/12/15 08:56:22;;;;;;;41.20;26.57;;;;;;;;;;4996010;28;20663;-74
2021/12/15 08:58:53;;;;;;;42.33;26.63;;;;;;;;;;4994271;28;20228;-75
2021/12/15 09:01:19;;;;;;;44.73;27.10;;;;;;;;;;4998028;28;20224;-77
2021/12/15 09:03:46;;;;;;;43.83;27.30;;;;;;;;;;5017496;28;20236;-75
2021/12/15 09:06:15;;;;;;;46.23;28.77;;;;;;;;;;4979851;28;20248;-75
2021/12/15 09:08:44;;;;;;;46.53;26.67;;;;;;;;;;5001794;28;20220;-75
2021/12/15 09:11:14;;;;;;;43.60;28.23;;;;;;;;;;4995556;28;20282;-75
2021/12/15 09:13:52;;;;;;;44.77;28.07;;;;;;;;;;4988663;28;20303;-75
2021/12/15 09:16:17;;;;;;;44.13;27.87;;;;;;;;;;5012632;28;20228;-75
2021/12/15 09:18:44;;;;;;;45.63;27.53;;;;;;;;;;4999558;28;20225;-75
2021/12/15 09:21:15;;;;;;;42.80;27.80;;;;;;;;;;5008576;28;20684;-75
2021/12/15 09:23:44;;;;;;;42.10;28.10;;;;;;;;;;4996787;28;20276;-75
2021/12/15 09:26:10;;;;;;;47.23;27.97;;;;;;;;;;4999077;28;20772;-75
2021/12/15 09:28:36;;;;;;;41.27;27.17;;;;;;;;;;5005390;28;20284;-75
2021/12/15 09:31:05;;;;;;;42.27;28.00;;;;;;;;;;4978957;28;20689;-75
2021/12/15 09:33:34;;;;;;;42.33;27.77;;;;;;;;;;4986694;28;20247;-75
2021/12/15 09:36:00;;;;;;;41.10;26.67;;;;;;;;;;5015129;28;20232;-75
2021/12/15 09:38:25;;;;;;;44.00;27.70;;;;;;;;;;5025480;28;20235;-75
2021/12/15 09:40:59;;;;;;;44.70;28.63;;;;;;;;;;4978755;28;20236;-74
2021/12/15 09:43:27;;;;;;;44.60;27.97;;;;;;;;;;5000345;28;20759;-74
2021/12/15 09:46:01;;;;;;;44.30;28.53;;;;;;;;;;4999515;28;20224;-76
2021/12/15 10:02:15;;;;;;;45.30;28.07;;;;;;;;;;5051964;28;20227;-75
2021/12/15 10:05:48;;;;;;;46.00;28.87;;;;;;;;;;5036825;28;20212;-74
2021/12/15 10:10:47;;;;;;;46.27;27.60;;;;;;;;;;4984019;28;20639;-75
2021/12/15 10:18:54;;;;;;;46.57;28.70;;;;;;;;;;5026588;28;20228;-76
2021/12/15 10:21:31;;;;;;;45.63;28.60;;;;;;;;;;4979703;28;20230;-76
2021/12/15 10:23:57;;;;;;;47.67;28.70;;;;;;;;;;5015358;28;20286;-76
2021/12/15 10:26:25;;;;;;;45.47;28.07;;;;;;;;;;5021159;28;20759;-75
2021/12/15 10:28:52;;;;;;;49.77;29.73;;;;;;;;;;4995798;28;20736;-75
2021/12/15 10:31:23;;;;;;;51.70;32.97;;;;;;;;;;4992844;28;20220;-75
2021/12/15 10:33:52;;;;;;;47.83;28.17;;;;;;;;;;4991897;28;20296;-75
2021/12/15 10:36:29;;;;;;;45.73;28.07;;;;;;;;;;5013916;28;20281;-75
2021/12/15 10:39:03;;;;;;;43.27;27.50;;;;;;;;;;5029177;28;20258;-79
2021/12/15 10:41:33;;;;;;;48.57;29.13;;;;;;;;;;4985651;28;20247;-75
2021/12/15 10:44:04;;;;;;;46.73;28.97;;;;;;;;;;4996191;28;20231;-75
2021/12/15 10:46:51;;;;;;;47.80;29.47;;;;;;;;;;5013620;28;20222;-75
2021/12/15 10:49:19;;;;;;;46.17;29.87;;;;;;;;;;5010893;28;20725;-76
2021/12/15 10:51:49;;;;;;;44.67;28.17;;;;;;;;;;5009989;28;20389;-74
2021/12/15 10:54:15;;;;;;;51.97;28.93;;;;;;;;;;4995584;28;20223;-73
2021/12/15 10:56:57;;;;;;;41.87;27.37;;;;;;;;;;5024678;28;20303;-73
2021/12/15 10:59:28;;;;;;;46.40;29.10;;;;;;;;;;5026004;28;20224;-75
2021/12/15 11:01:59;;;;;;;45.53;27.00;;;;;;;;;;4994271;28;20228;-74
2021/12/15 11:04:29;;;;;;;44.87;27.50;;;;;;;;;;4996392;28;20299;-74
2021/12/15 11:07:13;;;;;;;43.60;27.27;;;;;;;;;;5011697;28;20269;-74
2021/12/15 11:09:50;;;;;;;46.93;27.90;;;;;;;;;;5028988;28;20215;-74
2021/12/15 11:12:38;;;;;;;43.23;27.30;;;;;;;;;;5002711;28;20297;-74
2021/12/15 11:15:09;;;;;;;44.23;27.40;;;;;;;;;;5019429;28;20448;-74
2021/12/15 11:17:41;;;;;;;44.17;27.53;;;;;;;;;;5024884;28;20670;-74
2021/12/15 11:20:22;;;;;;;42.10;26.47;;;;;;;;;;5004183;28;20217;-74
2021/12/15 11:23:10;;;;;;;41.47;26.23;;;;;;;;;;5027505;28;20307;-74
2021/12/15 11:25:38;;;;;;;39.37;27.13;;;;;;;;;;4993635;28;20712;-73
2021/12/15 11:28:23;;;;;;;39.33;26.23;;;;;;;;;;5025026;28;20332;-73
2021/12/15 11:31:00;;;;;;;41.27;26.37;;;;;;;;;;5029413;28;20230;-76
2021/12/15 11:33:27;;;;;;;38.17;26.87;;;;;;;;;;5023953;28;20236;-74
2021/12/15 11:35:55;;;;;;;40.87;26.00;;;;;;;;;;5007902;28;20603;-74
2021/12/15 11:38:25;;;;;;;38.27;25.40;;;;;;;;;;5014954;28;20236;-77
2021/12/15 11:40:54;;;;;;;42.07;27.13;;;;;;;;;;5037598;28;20229;-73
2021/12/15 11:43:34;;;;;;;36.63;25.33;;;;;;;;;;5038844;28;20707;-75
2021/12/15 11:46:04;;;;;;;37.30;24.73;;;;;;;;;;5019108;28;20254;-76
2021/12/15 11:48:33;;;;;;;39.40;24.63;;;;;;;;;;5016015;28;20261;-75
2021/12/15 11:51:07;;;;;;;36.37;24.97;;;;;;;;;;5007600;28;20217;-75
2021/12/15 11:53:45;;;;;;;36.00;24.03;;;;;;;;;;4998383;28;20226;-75
2021/12/15 11:56:31;;;;;;;34.60;24.00;;;;;;;;;;5006350;28;20553;-74
2021/12/15 11:59:15;;;;;;;36.93;25.53;;;;;;;;;;5010851;28;20227;-73
2021/12/15 12:02:04;;;;;;;34.03;23.90;;;;;;;;;;5007469;28;20282;-74
2021/12/15 12:04:41;;;;;;;30.20;21.57;;;;;;;;;;5014859;28;20232;-74
2021/12/15 12:07:23;;;;;;;32.30;22.67;;;;;;;;;;4998898;28;20291;-75
2021/12/15 12:09:58;;;;;;;31.13;21.80;;;;;;;;;;5032975;28;20231;-74
2021/12/15 12:12:30;;;;;;;31.63;22.10;;;;;;;;;;4997835;28;20221;-73
2021/12/15 12:14:56;;;;;;;32.50;22.43;;;;;;;;;;5013375;28;20248;-74
2021/12/15 12:17:25;;;;;;;31.80;22.23;;;;;;;;;;5019521;28;20331;-74
2021/12/15 12:20:09;;;;;;;30.90;23.00;;;;;;;;;;5022810;28;20311;-73
2021/12/15 12:22:35;;;;;;;31.17;21.93;;;;;;;;;;5028255;28;20315;-73
2021/12/15 12:25:08;;;;;;;32.83;23.40;;;;;;;;;;5005331;28;20232;-74
2021/12/15 12:27:37;;;;;;;30.17;22.60;;;;;;;;;;5019099;28;20224;-74
2021/12/15 12:30:09;;;;;;;29.47;21.20;;;;;;;;;;5032729;28;20339;-75
2021/12/15 12:32:38;;;;;;;34.13;24.60;;;;;;;;;;5035546;28;20808;-74
2021/12/15 12:35:08;;;;;;;31.50;21.77;;;;;;;;;;5033489;28;20217;-75
2021/12/15 12:37:39;;;;;;;33.80;23.90;;;;;;;;;;5010996;28;20231;-75
2021/12/15 12:40:22;;;;;;;32.20;22.53;;;;;;;;;;4990324;28;20235;-74
2021/12/15 12:42:51;;;;;;;31.10;21.60;;;;;;;;;;4991505;28;20259;-74
2021/12/15 12:45:24;;;;;;;30.70;21.83;;;;;;;;;;5039284;28;20763;-74
2021/12/15 12:48:15;;;;;;;31.87;21.83;;;;;;;;;;5035502;28;20227;-74
2021/12/15 12:59:46;;;;;;;28.70;20.87;;;;;;;;;;5016311;28;20243;-73
2021/12/15 13:02:49;;;;;;;33.03;22.57;;;;;;;;;;5004303;28;20813;-73
2021/12/15 13:05:39;;;;;;;31.00;20.80;;;;;;;;;;5000119;28;20714;-74
2021/12/15 13:08:33;;;;;;;32.00;20.83;;;;;;;;;;5012823;28;20216;-73
2021/12/15 13:11:04;;;;;;;35.30;21.47;;;;;;;;;;5031678;28;20223;-74
2021/12/15 13:13:31;;;;;;;31.60;20.97;;;;;;;;;;4998431;28;20232;-74
2021/12/15 13:16:09;;;;;;;31.93;22.90;;;;;;;;;;5012082;28;20263;-74
2021/12/15 13:19:12;;;;;;;33.00;22.80;;;;;;;;;;5014695;28;20230;-74
2021/12/15 13:21:57;;;;;;;33.93;21.77;;;;;;;;;;5028167;28;20216;-74
2021/12/15 13:31:16;;;;;;;34.33;21.97;;;;;;;;;;5056858;28;20249;-73
2021/12/15 13:33:48;;;;;;;37.47;25.27;;;;;;;;;;5061108;28;20287;-72
2021/12/15 13:36:24;;;;;;;30.50;21.80;;;;;;;;;;5048082;28;20235;-73
2021/12/15 13:39:01;;;;;;;33.37;23.23;;;;;;;;;;5012780;28;20243;-74
2021/12/15 13:44:35;;;;;;;32.37;22.77;;;;;;;;;;5043127;28;20831;-74
2021/12/15 13:47:17;;;;;;;31.33;21.87;;;;;;;;;;5013608;28;20232;-74
2021/12/15 13:49:49;;;;;;;32.07;21.17;;;;;;;;;;5028971;28;20232;-73
2021/12/15 13:52:19;;;;;;;30.87;20.63;;;;;;;;;;5023037;28;20272;-74
2021/12/15 13:54:48;;;;;;;31.40;21.37;;;;;;;;;;5034373;28;20295;-74
2021/12/15 13:57:14;;;;;;;33.00;23.10;;;;;;;;;;5024078;28;20230;-74
2021/12/15 13:59:52;;;;;;;35.33;23.97;;;;;;;;;;5028661;28;20244;-74
2021/12/15 14:02:20;;;;;;;32.50;22.40;;;;;;;;;;5036012;28;20230;-74
2021/12/15 14:04:52;;;;;;;29.70;21.17;;;;;;;;;;5035070;28;20269;-74
2021/12/15 14:07:42;;;;;;;33.20;23.27;;;;;;;;;;5040725;28;20207;-75
2021/12/15 14:10:13;;;;;;;35.10;23.70;;;;;;;;;;5042218;28;20406;-74
2021/12/15 14:12:47;;;;;;;37.57;24.13;;;;;;;;;;5036803;28;20250;-75
2021/12/15 14:15:35;;;;;;;31.53;21.10;;;;;;;;;;5022090;28;20228;-74
2021/12/15 14:18:08;;;;;;;32.67;22.73;;;;;;;;;;5039283;28;20220;-74
2021/12/15 14:20:41;;;;;;;32.30;22.23;;;;;;;;;;5033384;28;20615;-76
2021/12/15 14:23:09;;;;;;;34.17;22.53;;;;;;;;;;5024793;28;20231;-75
2021/12/15 14:25:38;;;;;;;32.60;21.87;;;;;;;;;;5016788;28;20274;-75
2021/12/15 14:28:10;;;;;;;34.30;21.77;;;;;;;;;;5016181;28;20220;-76
2021/12/15 14:30:39;;;;;;;31.63;21.77;;;;;;;;;;5030518;28;20227;-75
2021/12/15 14:33:25;;;;;;;31.13;21.37;;;;;;;;;;5008145;28;20287;-75
2021/12/15 14:35:57;;;;;;;30.67;20.97;;;;;;;;;;4996199;28;20221;-75
2021/12/15 14:38:34;;;;;;;32.87;22.17;;;;;;;;;;5017526;28;20224;-75
2021/12/15 14:41:04;;;;;;;32.17;22.17;;;;;;;;;;5012182;28;20256;-74
2021/12/15 14:43:30;;;;;;;33.43;22.10;;;;;;;;;;4999488;28;20246;-74
2021/12/15 14:45:55;;;;;;;32.30;21.17;;;;;;;;;;5018443;28;20295;-74
2021/12/15 14:48:25;;;;;;;32.37;21.60;;;;;;;;;;5018626;28;20704;-74
2021/12/15 14:50:51;;;;;;;30.97;21.67;;;;;;;;;;5022882;28;20237;-75
2021/12/15 14:53:17;;;;;;;31.83;21.10;;;;;;;;;;4993397;28;20249;-74
2021/12/15 14:55:42;;;;;;;33.33;22.40;;;;;;;;;;4994354;28;20213;-74
2021/12/15 14:58:08;;;;;;;34.50;23.90;;;;;;;;;;5024313;28;20709;-75
2021/12/15 15:00:42;;;;;;;36.13;23.57;;;;;;;;;;5009630;28;20223;-75
2021/12/15 15:03:11;;;;;;;36.77;23.50;;;;;;;;;;5002835;28;20563;-74
2021/12/15 15:05:47;;;;;;;36.67;24.03;;;;;;;;;;5010215;28;20215;-74
2021/12/15 15:08:25;;;;;;;37.27;23.77;;;;;;;;;;5004717;28;20224;-76
2021/12/15 15:10:53;;;;;;;32.70;22.17;;;;;;;;;;5022612;28;20366;-74
2021/12/15 15:13:20;;;;;;;34.20;23.00;;;;;;;;;;5026643;28;20307;-74
2021/12/15 15:15:50;;;;;;;37.50;24.93;;;;;;;;;;5018630;28;20220;-74
2021/12/15 15:20:53;;;;;;;40.93;26.10;;;;;;;;;;4977664;28;20228;-75
2021/12/15 15:23:31;;;;;;;42.43;28.37;;;;;;;;;;4978526;28;20231;-75
2021/12/15 15:25:57;;;;;;;40.93;26.50;;;;;;;;;;4997666;28;20310;-74
2021/12/15 15:28:26;;;;;;;38.87;25.43;;;;;;;;;;5029609;28;20311;-74
2021/12/15 15:30:56;;;;;;;44.40;29.63;;;;;;;;;;5009877;28;20224;-74
2021/12/15 15:33:25;;;;;;;48.80;30.93;;;;;;;;;;4995562;28;20479;-75
2021/12/15 15:35:57;;;;;;;45.47;29.77;;;;;;;;;;5009705;28;20304;-75
2021/12/15 15:38:31;;;;;;;40.83;26.17;;;;;;;;;;4981553;28;20243;-75
2021/12/15 15:41:02;;;;;;;36.43;25.63;;;;;;;;;;5010500;28;20558;-75
2021/12/15 15:43:53;;;;;;;36.23;24.93;;;;;;;;;;4978492;28;20232;-75
2021/12/15 15:46:26;;;;;;;39.97;26.50;;;;;;;;;;4999658;28;20224;-76
2021/12/15 15:48:52;;;;;;;42.73;26.63;;;;;;;;;;5026990;28;20777;-75
2021/12/15 15:51:33;;;;;;;38.37;25.73;;;;;;;;;;5009042;28;20225;-75
2021/12/15 15:54:03;;;;;;;35.30;24.07;;;;;;;;;;4994478;28;20234;-76
2021/12/15 15:56:32;;;;;;;39.23;25.17;;;;;;;;;;5011836;28;20220;-75
2021/12/15 15:59:04;;;;;;;43.47;25.87;;;;;;;;;;5033214;28;20238;-76
2021/12/15 16:01:32;;;;;;;37.20;24.07;;;;;;;;;;5000025;28;20226;-75
2021/12/15 16:03:58;;;;;;;38.53;23.80;;;;;;;;;;5008389;28;20735;-75
2021/12/15 16:06:31;;;;;;;37.67;24.03;;;;;;;;;;5008926;28;20222;-75